Time;durP1;ratioP1;P1;durP2;ratioP2;P2;SDS_P1;SDS_P2;PMS_P1;PMS_P2;Temp;Humidity;BMP_temperature;BMP_pressure;BME280_temperature;BME280_humidity;BME280_pressure;Samples;Min_cycle;Max_cycle;Signal;HPM_P1;HPM_P2
2023/05/01 00:02:11;;;;;;;53.00;13.48;;;;;;;;;;5019616;28;20058;-56
2023/05/01 00:04:39;;;;;;;67.35;15.00;;;;;;;;;;5024952;28;20135;-56
2023/05/01 00:07:05;;;;;;;132.55;21.35;;;;;;;;;;5023517;28;20506;-59
2023/05/01 00:09:32;;;;;;;74.00;15.48;;;;;;;;;;5020312;28;20104;-59
2023/05/01 00:11:59;;;;;;;105.43;18.38;;;;;;;;;;5004256;28;20075;-60
2023/05/01 00:14:25;;;;;;;130.18;20.30;;;;;;;;;;5018169;28;20082;-59
2023/05/01 00:16:52;;;;;;;65.15;15.35;;;;;;;;;;5019761;28;20376;-57
2023/05/01 00:19:18;;;;;;;74.53;17.48;;;;;;;;;;5007665;28;20044;-58
2023/05/01 00:21:46;;;;;;;114.95;20.42;;;;;;;;;;5018132;28;20126;-61
2023/05/01 00:24:14;;;;;;;90.43;21.80;;;;;;;;;;5021618;28;20041;-60
2023/05/01 00:26:40;;;;;;;59.38;18.40;;;;;;;;;;5019580;28;20483;-61
2023/05/01 00:29:07;;;;;;;127.75;27.67;;;;;;;;;;5022001;28;20057;-60
2023/05/01 00:31:34;;;;;;;117.38;26.02;;;;;;;;;;5024085;28;20037;-61
2023/05/01 00:34:01;;;;;;;74.65;20.33;;;;;;;;;;5021768;28;20045;-61
2023/05/01 00:36:27;;;;;;;144.20;25.70;;;;;;;;;;5020273;28;20046;-61
2023/05/01 00:38:54;;;;;;;106.10;22.67;;;;;;;;;;5018574;28;20128;-57
2023/05/01 00:41:20;;;;;;;63.20;17.25;;;;;;;;;;5022372;28;20061;-60
2023/05/01 00:43:47;;;;;;;111.20;21.77;;;;;;;;;;5023885;28;20092;-59
2023/05/01 00:46:14;;;;;;;69.68;18.00;;;;;;;;;;5010066;28;20044;-58
2023/05/01 00:48:41;;;;;;;66.00;20.08;;;;;;;;;;5019468;28;20160;-54
2023/05/01 00:51:07;;;;;;;126.28;24.38;;;;;;;;;;5019976;28;20143;-57
2023/05/01 00:53:34;;;;;;;81.90;22.13;;;;;;;;;;5019535;28;20100;-59
2023/05/01 00:56:00;;;;;;;77.50;21.98;;;;;;;;;;5010028;28;20069;-56
2023/05/01 00:58:28;;;;;;;105.15;23.17;;;;;;;;;;5018508;28;20137;-61
2023/05/01 01:00:55;;;;;;;105.00;24.70;;;;;;;;;;5022511;28;20107;-60
2023/05/01 01:03:22;;;;;;;69.32;23.88;;;;;;;;;;5018322;28;20574;-57
2023/05/01 01:06:08;;;;;;;135.98;28.70;;;;;;;;;;5019645;28;20053;-62
2023/05/01 01:08:40;;;;;;;80.93;23.73;;;;;;;;;;5019957;28;20049;-53
2023/05/01 01:11:20;;;;;;;133.10;29.08;;;;;;;;;;5020782;28;20053;-56
2023/05/01 01:14:05;;;;;;;59.05;21.63;;;;;;;;;;5018863;28;20042;-53
2023/05/01 01:16:44;;;;;;;141.93;36.22;;;;;;;;;;5017915;28;20061;-56
2023/05/01 01:19:37;;;;;;;77.18;35.58;;;;;;;;;;5024147;28;20038;-58
2023/05/01 01:22:08;;;;;;;95.38;42.90;;;;;;;;;;5013996;28;20133;-58
2023/05/01 01:24:37;;;;;;;90.28;31.15;;;;;;;;;;5019504;28;20092;-56
2023/05/01 01:27:12;;;;;;;153.85;33.08;;;;;;;;;;5018601;28;20056;-62
2023/05/01 01:29:46;;;;;;;59.88;22.27;;;;;;;;;;5019103;28;20077;-53
2023/05/01 01:32:31;;;;;;;107.63;26.17;;;;;;;;;;5019975;28;20050;-63
2023/05/01 01:35:02;;;;;;;85.47;24.98;;;;;;;;;;5017384;28;20049;-53
2023/05/01 01:37:35;;;;;;;149.27;29.25;;;;;;;;;;5019659;28;20095;-55
2023/05/01 01:40:05;;;;;;;86.85;25.27;;;;;;;;;;5008033;28;20149;-56
2023/05/01 01:42:37;;;;;;;112.90;27.75;;;;;;;;;;5018952;28;20049;-59
2023/05/01 01:45:09;;;;;;;140.20;30.05;;;;;;;;;;5019093;28;20046;-63
2023/05/01 01:47:37;;;;;;;78.13;24.55;;;;;;;;;;5000186;28;20530;-52
2023/05/01 01:50:05;;;;;;;135.30;30.40;;;;;;;;;;5018074;28;20510;-58
2023/05/01 01:52:32;;;;;;;106.05;27.08;;;;;;;;;;5018144;28;20052;-59
2023/05/01 01:55:04;;;;;;;86.15;24.50;;;;;;;;;;5001997;28;20053;-55
2023/05/01 01:57:31;;;;;;;129.65;29.73;;;;;;;;;;5008956;28;20722;-54
2023/05/01 01:59:57;;;;;;;164.60;34.40;;;;;;;;;;5001436;28;20050;-56
2023/05/01 02:02:25;;;;;;;71.18;20.88;;;;;;;;;;5050355;23;20099;-62
2023/05/01 02:04:55;;;;;;;134.48;29.15;;;;;;;;;;5008998;28;20049;-58
2023/05/01 02:07:23;;;;;;;90.55;24.48;;;;;;;;;;4993912;28;20525;-59
2023/05/01 02:09:50;;;;;;;88.43;27.25;;;;;;;;;;5005879;28;20050;-62
2023/05/01 02:12:18;;;;;;;126.13;30.48;;;;;;;;;;4993473;28;20049;-61
2023/05/01 02:14:44;;;;;;;75.40;24.33;;;;;;;;;;5010880;28;20140;-62
2023/05/01 02:17:13;;;;;;;87.28;25.25;;;;;;;;;;5009592;28;20053;-62
2023/05/01 02:19:40;;;;;;;101.47;28.27;;;;;;;;;;5019238;28;20084;-60
2023/05/01 02:22:07;;;;;;;83.93;26.42;;;;;;;;;;5009902;28;20049;-62
2023/05/01 02:24:34;;;;;;;116.53;33.20;;;;;;;;;;4992864;28;20046;-59
2023/05/01 02:27:08;;;;;;;171.77;43.45;;;;;;;;;;5027301;28;20065;-62
2023/05/01 02:29:34;;;;;;;101.05;37.40;;;;;;;;;;5027619;28;20136;-62
2023/05/01 02:32:01;;;;;;;138.25;38.28;;;;;;;;;;5026960;28;20069;-60
2023/05/01 02:34:28;;;;;;;132.00;41.15;;;;;;;;;;5001790;28;20041;-59
2023/05/01 02:36:55;;;;;;;114.13;43.65;;;;;;;;;;5009459;28;20136;-63
2023/05/01 02:39:22;;;;;;;143.20;41.15;;;;;;;;;;5008824;28;20118;-61
2023/05/01 02:41:50;;;;;;;104.85;35.45;;;;;;;;;;5010286;28;20056;-61
2023/05/01 02:44:17;;;;;;;101.20;35.45;;;;;;;;;;5004721;28;20060;-62
2023/05/01 02:46:45;;;;;;;142.80;37.05;;;;;;;;;;5030567;28;20490;-60
2023/05/01 02:49:12;;;;;;;118.75;31.13;;;;;;;;;;5013142;28;20043;-60
2023/05/01 02:51:39;;;;;;;96.20;27.50;;;;;;;;;;5021922;28;20045;-61
2023/05/01 02:54:06;;;;;;;163.60;32.53;;;;;;;;;;5030599;28;20045;-61
2023/05/01 02:56:33;;;;;;;107.57;25.40;;;;;;;;;;5013968;28;20054;-59
2023/05/01 02:59:00;;;;;;;104.30;25.73;;;;;;;;;;5012546;28;20549;-59
2023/05/01 03:01:27;;;;;;;155.90;30.73;;;;;;;;;;5020924;28;20120;-59
2023/05/01 03:03:54;;;;;;;90.93;23.88;;;;;;;;;;5012780;28;20543;-59
2023/05/01 03:06:20;;;;;;;90.68;23.90;;;;;;;;;;5030920;28;20044;-61
2023/05/01 03:08:47;;;;;;;120.32;27.20;;;;;;;;;;5013332;28;20372;-61
2023/05/01 03:11:14;;;;;;;102.90;27.98;;;;;;;;;;5030395;28;20518;-60
2023/05/01 03:13:41;;;;;;;74.32;25.25;;;;;;;;;;5004624;28;20050;-60
2023/05/01 03:16:07;;;;;;;100.95;25.83;;;;;;;;;;5030106;28;20056;-61
2023/05/01 03:18:34;;;;;;;149.25;30.83;;;;;;;;;;5029890;28;20040;-61
2023/05/01 03:21:01;;;;;;;111.53;26.38;;;;;;;;;;5007278;28;20042;-61
2023/05/01 03:23:27;;;;;;;67.50;21.15;;;;;;;;;;5022828;28;20152;-62
2023/05/01 03:25:54;;;;;;;108.53;30.23;;;;;;;;;;5009766;28;20068;-62
2023/05/01 03:28:22;;;;;;;88.07;23.30;;;;;;;;;;5005467;28;20033;-63
2023/05/01 03:30:51;;;;;;;101.00;24.10;;;;;;;;;;5001065;28;20080;-62
2023/05/01 03:33:18;;;;;;;82.32;25.17;;;;;;;;;;5028439;28;20049;-64
2023/05/01 03:35:45;;;;;;;83.32;23.20;;;;;;;;;;5013810;28;20483;-60
2023/05/01 03:38:12;;;;;;;91.15;24.05;;;;;;;;;;5029791;28;20518;-63
2023/05/01 03:40:57;;;;;;;97.93;23.20;;;;;;;;;;5030777;28;20109;-61
2023/05/01 03:43:42;;;;;;;137.52;26.77;;;;;;;;;;5028584;28;20184;-62
2023/05/01 03:46:26;;;;;;;97.53;21.60;;;;;;;;;;5005758;28;20045;-62
2023/05/01 03:48:53;;;;;;;144.00;25.88;;;;;;;;;;5029473;28;20064;-62
2023/05/01 03:51:20;;;;;;;105.95;21.77;;;;;;;;;;5012419;28;20068;-62
2023/05/01 03:53:47;;;;;;;91.85;22.42;;;;;;;;;;5012835;28;20461;-59
2023/05/01 03:56:13;;;;;;;157.35;27.05;;;;;;;;;;5012435;28;20053;-61
2023/05/01 03:58:40;;;;;;;103.78;21.88;;;;;;;;;;5011749;28;20053;-61
2023/05/01 04:01:07;;;;;;;81.25;19.05;;;;;;;;;;5030218;28;20501;-60
2023/05/01 04:03:39;;;;;;;174.70;26.40;;;;;;;;;;5006221;28;20115;-61
2023/05/01 04:06:06;;;;;;;148.85;23.77;;;;;;;;;;5029677;28;20049;-60
2023/05/01 04:08:32;;;;;;;108.90;21.70;;;;;;;;;;5012982;28;20084;-62
2023/05/01 04:10:59;;;;;;;151.02;23.38;;;;;;;;;;5006560;28;20495;-62
2023/05/01 04:13:26;;;;;;;90.40;18.35;;;;;;;;;;5005383;28;20483;-61
2023/05/01 04:15:54;;;;;;;83.20;17.58;;;;;;;;;;5012131;28;20053;-62
2023/05/01 04:18:22;;;;;;;138.38;21.33;;;;;;;;;;5011164;28;20482;-63
2023/05/01 04:20:48;;;;;;;71.72;16.38;;;;;;;;;;5012526;28;20053;-63
2023/05/01 04:23:15;;;;;;;60.15;13.25;;;;;;;;;;4995975;28;20049;-62
2023/05/01 04:25:42;;;;;;;159.63;22.00;;;;;;;;;;5000152;28;20041;-62
2023/05/01 04:28:12;;;;;;;94.75;15.70;;;;;;;;;;5023355;28;20550;-62
2023/05/01 04:30:39;;;;;;;97.38;13.13;;;;;;;;;;5011303;28;20041;-63
2023/05/01 04:33:10;;;;;;;191.18;19.60;;;;;;;;;;5010907;28;20675;-61
2023/05/01 04:35:38;;;;;;;83.60;12.15;;;;;;;;;;5011547;28;20045;-59
2023/05/01 04:38:05;;;;;;;85.35;12.88;;;;;;;;;;5018924;28;20059;-60
2023/05/01 04:40:32;;;;;;;126.13;15.13;;;;;;;;;;5008339;28;20041;-61
2023/05/01 04:42:59;;;;;;;125.95;15.60;;;;;;;;;;5028746;28;20045;-59
2023/05/01 04:45:26;;;;;;;93.38;12.95;;;;;;;;;;5028883;28;20418;-59
2023/05/01 04:47:53;;;;;;;138.40;17.98;;;;;;;;;;5021529;28;20160;-60
2023/05/01 04:50:20;;;;;;;122.88;14.45;;;;;;;;;;5006827;28;20064;-60
2023/05/01 04:52:46;;;;;;;61.90;11.88;;;;;;;;;;5011267;28;20057;-61
2023/05/01 04:55:13;;;;;;;137.85;16.98;;;;;;;;;;5028361;28;20056;-59
2023/05/01 04:57:56;;;;;;;63.33;11.80;;;;;;;;;;5010838;28;20045;-59
2023/05/01 05:00:23;;;;;;;113.55;14.38;;;;;;;;;;5010274;28;20503;-60
2023/05/01 05:02:54;;;;;;;92.72;13.02;;;;;;;;;;5007529;28;20057;-60
2023/05/01 05:05:21;;;;;;;72.35;12.40;;;;;;;;;;5011830;28;20061;-61
2023/05/01 05:07:48;;;;;;;124.10;13.93;;;;;;;;;;5024600;28;20079;-59
2023/05/01 05:10:35;;;;;;;48.40;8.07;;;;;;;;;;5010972;28;20034;-59
2023/05/01 05:13:34;;;;;;;64.20;9.20;;;;;;;;;;5016097;28;20049;-59
2023/05/01 05:16:06;;;;;;;116.25;12.48;;;;;;;;;;5023390;28;20053;-59
2023/05/01 05:18:32;;;;;;;94.43;10.93;;;;;;;;;;5019528;28;20053;-59
2023/05/01 05:21:01;;;;;;;98.55;11.68;;;;;;;;;;5010634;28;20640;-60
2023/05/01 05:23:28;;;;;;;112.47;11.98;;;;;;;;;;5008396;28;20579;-60
2023/05/01 05:25:55;;;;;;;77.47;10.95;;;;;;;;;;5028172;28;20128;-60
2023/05/01 05:28:22;;;;;;;33.72;7.65;;;;;;;;;;5010632;28;20095;-60
2023/05/01 05:30:50;;;;;;;144.70;15.68;;;;;;;;;;5019793;28;20049;-60
2023/05/01 05:33:18;;;;;;;91.60;12.77;;;;;;;;;;5026003;28;20041;-60
2023/05/01 05:35:44;;;;;;;66.68;10.75;;;;;;;;;;5010202;28;20088;-60
2023/05/01 05:38:11;;;;;;;131.45;14.40;;;;;;;;;;5027414;28;20156;-59
2023/05/01 05:40:39;;;;;;;84.57;10.02;;;;;;;;;;5016838;28;20041;-60
2023/05/01 05:43:06;;;;;;;99.13;11.77;;;;;;;;;;5010137;28;20100;-59
2023/05/01 05:45:33;;;;;;;124.75;12.45;;;;;;;;;;5010112;28;20412;-61
2023/05/01 05:48:00;;;;;;;119.05;11.38;;;;;;;;;;5009145;28;20120;-59
2023/05/01 05:50:29;;;;;;;46.78;6.45;;;;;;;;;;5011111;28;20417;-59
2023/05/01 05:52:56;;;;;;;138.80;13.13;;;;;;;;;;4993094;28;20443;-60
2023/05/01 05:55:23;;;;;;;79.00;8.60;;;;;;;;;;5009830;28;20049;-59
2023/05/01 05:58:03;;;;;;;68.15;7.90;;;;;;;;;;5018000;28;20582;-61
2023/05/01 06:00:30;;;;;;;68.07;8.30;;;;;;;;;;5010209;28;20081;-61
2023/05/01 06:03:01;;;;;;;83.82;8.40;;;;;;;;;;5019887;28;20065;-59
2023/05/01 06:05:29;;;;;;;119.38;10.65;;;;;;;;;;5010602;28;20136;-60
2023/05/01 06:07:55;;;;;;;77.25;7.70;;;;;;;;;;5028016;28;20041;-60
2023/05/01 06:10:22;;;;;;;48.17;6.10;;;;;;;;;;5008508;28;20403;-61
2023/05/01 06:12:49;;;;;;;79.15;7.57;;;;;;;;;;5027274;28;20120;-63
2023/05/01 06:15:31;;;;;;;71.45;7.68;;;;;;;;;;5009924;28;20499;-63
2023/05/01 06:17:57;;;;;;;80.82;7.70;;;;;;;;;;5012219;28;20045;-62
2023/05/01 06:20:24;;;;;;;103.82;9.65;;;;;;;;;;5032616;28;20382;-64
2023/05/01 06:22:51;;;;;;;53.03;6.55;;;;;;;;;;5013653;28;20056;-63
2023/05/01 06:25:25;;;;;;;69.82;7.43;;;;;;;;;;5013308;28;20044;-64
2023/05/01 06:27:52;;;;;;;47.28;5.78;;;;;;;;;;5031855;28;20056;-64
2023/05/01 06:30:20;;;;;;;82.93;8.10;;;;;;;;;;5014007;28;20041;-63
2023/05/01 06:32:47;;;;;;;87.65;8.15;;;;;;;;;;5013908;28;20068;-64
2023/05/01 06:35:15;;;;;;;54.38;6.10;;;;;;;;;;5013277;28;20049;-65
2023/05/01 06:37:41;;;;;;;51.38;6.05;;;;;;;;;;5019838;28;20048;-63
2023/05/01 06:40:09;;;;;;;105.90;10.07;;;;;;;;;;5012305;28;20060;-69
2023/05/01 06:42:37;;;;;;;86.00;9.02;;;;;;;;;;5013576;28;20099;-64
2023/05/01 06:45:05;;;;;;;57.63;6.75;;;;;;;;;;5014048;28;20144;-62
2023/05/01 06:47:31;;;;;;;95.93;10.15;;;;;;;;;;5012804;28;20064;-62
2023/05/01 06:49:59;;;;;;;69.05;7.30;;;;;;;;;;5013238;28;20562;-63
2023/05/01 06:52:31;;;;;;;80.38;8.60;;;;;;;;;;5026936;28;20080;-62
2023/05/01 06:54:58;;;;;;;126.25;10.65;;;;;;;;;;5030737;28;20136;-62
2023/05/01 06:57:25;;;;;;;72.20;7.55;;;;;;;;;;5013178;28;20072;-62
2023/05/01 06:59:51;;;;;;;34.03;5.18;;;;;;;;;;5013877;28;20069;-63
2023/05/01 07:02:18;;;;;;;130.23;11.05;;;;;;;;;;5023807;28;20064;-62
2023/05/01 07:04:44;;;;;;;67.05;6.70;;;;;;;;;;5030718;28;20598;-66
2023/05/01 07:07:11;;;;;;;65.80;6.68;;;;;;;;;;5031003;28;20132;-60
2023/05/01 07:09:39;;;;;;;108.75;9.48;;;;;;;;;;5027498;28;20442;-60
2023/05/01 07:12:05;;;;;;;140.27;12.35;;;;;;;;;;5021334;28;20456;-66
2023/05/01 07:14:33;;;;;;;56.97;6.57;;;;;;;;;;5029749;28;20060;-61
2023/05/01 07:17:00;;;;;;;112.07;10.07;;;;;;;;;;5022259;28;20392;-60
2023/05/01 07:19:27;;;;;;;70.80;7.85;;;;;;;;;;5012483;28;20129;-63
2023/05/01 07:21:54;;;;;;;264.85;19.80;;;;;;;;;;5023614;28;20076;-65
2023/05/01 07:24:20;;;;;;;109.30;9.65;;;;;;;;;;5030630;28;20049;-62
2023/05/01 07:26:47;;;;;;;65.70;7.05;;;;;;;;;;5029451;28;20046;-63
2023/05/01 07:29:15;;;;;;;46.55;5.30;;;;;;;;;;5029279;28;20045;-62
2023/05/01 07:31:42;;;;;;;93.28;9.07;;;;;;;;;;5026761;28;20124;-64
2023/05/01 07:34:09;;;;;;;77.05;7.70;;;;;;;;;;5030190;28;20085;-65
2023/05/01 07:36:35;;;;;;;51.72;6.22;;;;;;;;;;5021137;28;20120;-62
2023/05/01 07:39:03;;;;;;;151.02;12.15;;;;;;;;;;5012337;28;20053;-63
2023/05/01 07:41:29;;;;;;;48.88;5.38;;;;;;;;;;4996770;28;20470;-62
2023/05/01 07:43:59;;;;;;;87.90;8.38;;;;;;;;;;5011488;28;20057;-62
2023/05/01 07:46:26;;;;;;;112.45;9.77;;;;;;;;;;5020060;28;20072;-62
2023/05/01 07:48:53;;;;;;;89.82;7.10;;;;;;;;;;5030026;28;20069;-64
2023/05/01 07:51:20;;;;;;;51.53;5.57;;;;;;;;;;5011406;28;20046;-63
2023/05/01 07:53:46;;;;;;;68.10;6.97;;;;;;;;;;5012695;28;20636;-62
2023/05/01 07:56:13;;;;;;;54.90;5.68;;;;;;;;;;5030008;28;20065;-62
2023/05/01 07:58:41;;;;;;;56.47;5.75;;;;;;;;;;5030243;28;20041;-61
2023/05/01 08:01:08;;;;;;;86.00;7.13;;;;;;;;;;5029752;28;20049;-62
2023/05/01 08:03:34;;;;;;;102.63;7.97;;;;;;;;;;5029371;28;20049;-63
2023/05/01 08:06:01;;;;;;;101.93;8.70;;;;;;;;;;5029988;28;20201;-61
2023/05/01 08:08:28;;;;;;;69.22;6.65;;;;;;;;;;5030405;28;20048;-64
2023/05/01 08:10:55;;;;;;;51.13;4.95;;;;;;;;;;5011411;28;20037;-63
2023/05/01 08:13:22;;;;;;;54.83;5.38;;;;;;;;;;5011847;28;20064;-61
2023/05/01 08:15:48;;;;;;;78.20;6.88;;;;;;;;;;5007895;28;20135;-64
2023/05/01 08:18:19;;;;;;;61.20;5.60;;;;;;;;;;5029038;28;20091;-63
2023/05/01 08:20:49;;;;;;;45.70;5.35;;;;;;;;;;5030831;28;20054;-61
2023/05/01 08:23:16;;;;;;;89.57;7.88;;;;;;;;;;5029031;28;20045;-62
2023/05/01 08:25:45;;;;;;;88.47;7.63;;;;;;;;;;5029391;28;20034;-70
2023/05/01 08:28:13;;;;;;;68.85;6.10;;;;;;;;;;5011923;28;20103;-64
2023/05/01 08:30:40;;;;;;;102.43;8.57;;;;;;;;;;5018400;28;20095;-62
2023/05/01 08:33:06;;;;;;;97.55;8.50;;;;;;;;;;5029253;28;20095;-62
2023/05/01 08:35:33;;;;;;;57.53;5.18;;;;;;;;;;5028605;28;20049;-63
2023/05/01 08:38:00;;;;;;;125.43;10.07;;;;;;;;;;5029080;28;20144;-62
2023/05/01 08:40:30;;;;;;;64.30;5.82;;;;;;;;;;5010290;28;20046;-63
2023/05/01 08:42:58;;;;;;;50.50;4.93;;;;;;;;;;5028841;28;20044;-62
2023/05/01 08:45:26;;;;;;;122.60;10.23;;;;;;;;;;5010754;28;20073;-62
2023/05/01 08:47:53;;;;;;;74.70;6.70;;;;;;;;;;5011392;28;20652;-62
2023/05/01 08:50:21;;;;;;;41.30;4.43;;;;;;;;;;5011915;28;20060;-64
2023/05/01 08:52:50;;;;;;;94.80;7.55;;;;;;;;;;5018859;28;20103;-62
2023/05/01 08:55:18;;;;;;;63.05;6.07;;;;;;;;;;5006697;28;20053;-62
2023/05/01 08:57:45;;;;;;;35.75;4.43;;;;;;;;;;5025549;28;20048;-61
2023/05/01 09:00:17;;;;;;;142.95;11.13;;;;;;;;;;5028541;28;20061;-62
2023/05/01 09:02:45;;;;;;;61.47;6.07;;;;;;;;;;5011848;28;20515;-63
2023/05/01 09:05:13;;;;;;;50.40;4.90;;;;;;;;;;5028564;28;20049;-66
2023/05/01 09:07:41;;;;;;;100.00;8.40;;;;;;;;;;5028972;28;20152;-65
2023/05/01 09:10:08;;;;;;;86.22;7.18;;;;;;;;;;5010599;28;20055;-62
2023/05/01 09:12:35;;;;;;;80.65;7.07;;;;;;;;;;5028943;28;20099;-66
2023/05/01 09:15:02;;;;;;;79.47;7.40;;;;;;;;;;5019703;28;20069;-63
2023/05/01 09:17:31;;;;;;;82.22;7.30;;;;;;;;;;5011341;28;20495;-63
2023/05/01 09:19:58;;;;;;;38.47;4.32;;;;;;;;;;5028374;28;20052;-65
2023/05/01 09:22:24;;;;;;;93.82;8.65;;;;;;;;;;5028578;28;20542;-63
2023/05/01 09:24:51;;;;;;;55.35;6.15;;;;;;;;;;5028958;28;20049;-64
2023/05/01 09:27:18;;;;;;;63.78;6.18;;;;;;;;;;5014528;28;20038;-66
2023/05/01 09:29:46;;;;;;;71.90;7.50;;;;;;;;;;5010945;28;20041;-63
2023/05/01 09:32:12;;;;;;;107.65;8.60;;;;;;;;;;5010287;28;20041;-63
2023/05/01 09:34:39;;;;;;;52.17;6.05;;;;;;;;;;5010302;28;20053;-63
2023/05/01 09:37:06;;;;;;;101.88;8.52;;;;;;;;;;5010196;28;20049;-63
2023/05/01 09:39:32;;;;;;;81.68;7.32;;;;;;;;;;5010044;28;20046;-63
2023/05/01 09:41:59;;;;;;;102.85;8.82;;;;;;;;;;5010286;28;20072;-63
2023/05/01 09:44:26;;;;;;;112.72;10.07;;;;;;;;;;5028419;28;20042;-63
2023/05/01 09:46:53;;;;;;;69.65;6.53;;;;;;;;;;5015082;28;20033;-65
2023/05/01 09:49:40;;;;;;;44.40;5.07;;;;;;;;;;5028296;28;20534;-66
2023/05/01 09:52:10;;;;;;;66.32;6.40;;;;;;;;;;5008464;28;20053;-63
2023/05/01 09:54:37;;;;;;;65.47;6.35;;;;;;;;;;4994010;28;20604;-64
2023/05/01 09:57:03;;;;;;;122.65;10.23;;;;;;;;;;5010338;28;20804;-65
2023/05/01 09:59:33;;;;;;;68.18;6.82;;;;;;;;;;5028787;28;20399;-63
2023/05/01 10:02:00;;;;;;;36.65;4.20;;;;;;;;;;5027352;28;20095;-75
2023/05/01 10:04:34;;;;;;;83.97;7.10;;;;;;;;;;5003914;28;20045;-75
2023/05/01 10:07:13;;;;;;;69.43;5.90;;;;;;;;;;5007423;28;20099;-73
2023/05/01 10:09:41;;;;;;;136.57;11.43;;;;;;;;;;5025861;28;20076;-74
2023/05/01 10:12:07;;;;;;;90.25;7.80;;;;;;;;;;5028014;28;20647;-68
2023/05/01 10:14:47;;;;;;;71.35;6.85;;;;;;;;;;5027714;28;20042;-69
2023/05/01 10:17:20;;;;;;;59.33;5.50;;;;;;;;;;5026984;28;20045;-68
2023/05/01 10:19:47;;;;;;;55.10;5.53;;;;;;;;;;5028290;28;20072;-67
2023/05/01 10:22:14;;;;;;;105.10;8.52;;;;;;;;;;5027295;28;20092;-70
2023/05/01 10:24:42;;;;;;;90.28;7.45;;;;;;;;;;5027911;28;20045;-71
2023/05/01 10:27:09;;;;;;;100.00;8.10;;;;;;;;;;5009714;28;20057;-70
2023/05/01 10:29:36;;;;;;;121.45;10.05;;;;;;;;;;5027900;28;20439;-70
2023/05/01 10:32:03;;;;;;;276.48;17.25;;;;;;;;;;5009793;28;20124;-69
2023/05/01 10:34:32;;;;;;;54.55;5.78;;;;;;;;;;5010132;28;20037;-70
2023/05/01 10:37:03;;;;;;;106.93;8.38;;;;;;;;;;5027290;28;20045;-69
2023/05/01 10:39:34;;;;;;;90.10;8.05;;;;;;;;;;5027728;28;20522;-69
2023/05/01 10:42:02;;;;;;;280.50;17.50;;;;;;;;;;5024394;28;20046;-73
2023/05/01 10:44:29;;;;;;;94.90;7.40;;;;;;;;;;5027751;28;20056;-67
2023/05/01 10:46:56;;;;;;;58.83;5.28;;;;;;;;;;5006970;28;20088;-70
2023/05/01 10:49:23;;;;;;;113.22;8.48;;;;;;;;;;5019497;28;20041;-72
2023/05/01 10:51:56;;;;;;;58.35;5.28;;;;;;;;;;5027469;28;20142;-70
2023/05/01 10:54:30;;;;;;;52.42;5.13;;;;;;;;;;5027560;28;20065;-77
2023/05/01 10:56:58;;;;;;;171.27;12.82;;;;;;;;;;5026255;28;20088;-75
2023/05/01 10:59:24;;;;;;;75.82;6.50;;;;;;;;;;5026520;28;20492;-72
2023/05/01 11:01:51;;;;;;;48.03;4.82;;;;;;;;;;5026419;28;20053;-77
2023/05/01 11:04:18;;;;;;;84.90;6.45;;;;;;;;;;5027638;28;20398;-74
2023/05/01 11:07:14;;;;;;;92.15;8.45;;;;;;;;;;5030635;28;20429;-78
2023/05/01 11:09:40;;;;;;;101.93;7.88;;;;;;;;;;5018036;28;20057;-73
2023/05/01 11:12:11;;;;;;;103.72;8.25;;;;;;;;;;5013049;28;20068;-67
2023/05/01 11:14:53;;;;;;;143.38;11.13;;;;;;;;;;5029924;28;20091;-69
2023/05/01 11:17:38;;;;;;;59.60;5.35;;;;;;;;;;5022320;28;20049;-71
2023/05/01 11:20:09;;;;;;;524.08;35.88;;;;;;;;;;5028713;28;20045;-66
2023/05/01 11:22:36;;;;;;;82.25;7.10;;;;;;;;;;5030627;28;20033;-82
2023/05/01 11:25:14;;;;;;;98.65;6.90;;;;;;;;;;5013191;28;20045;-81
2023/05/01 11:27:45;;;;;;;86.00;7.20;;;;;;;;;;5030814;28;20050;-82
2023/05/01 11:30:12;;;;;;;98.78;8.18;;;;;;;;;;5030648;28;20053;-78
2023/05/01 11:32:41;;;;;;;112.57;9.60;;;;;;;;;;5027715;28;20099;-78
2023/05/01 11:35:15;;;;;;;79.97;7.28;;;;;;;;;;5028437;28;20108;-78
2023/05/01 11:37:43;;;;;;;82.47;6.55;;;;;;;;;;5030590;28;20046;-78
2023/05/01 11:40:30;;;;;;;89.13;7.55;;;;;;;;;;5010252;28;20041;-78
2023/05/01 11:43:06;;;;;;;100.50;8.23;;;;;;;;;;5026594;28;20124;-79
2023/05/01 11:45:34;;;;;;;162.25;13.30;;;;;;;;;;5028036;28;20537;-76
2023/05/01 11:48:01;;;;;;;63.80;6.13;;;;;;;;;;5030206;28;20156;-78
2023/05/01 11:50:37;;;;;;;114.82;9.38;;;;;;;;;;5029714;28;20495;-67
2023/05/01 11:53:10;;;;;;;73.88;6.15;;;;;;;;;;5030106;28;20868;-66
2023/05/01 11:55:40;;;;;;;165.15;12.15;;;;;;;;;;5008364;28;20033;-67
2023/05/01 11:58:06;;;;;;;110.85;8.80;;;;;;;;;;5029672;28;20041;-67
2023/05/01 12:00:35;;;;;;;92.03;7.20;;;;;;;;;;5030303;28;20383;-67
2023/05/01 12:03:05;;;;;;;120.07;9.93;;;;;;;;;;5026872;28;20515;-68
2023/05/01 12:05:36;;;;;;;80.10;6.47;;;;;;;;;;5029876;28;20103;-68
2023/05/01 12:08:13;;;;;;;62.33;5.72;;;;;;;;;;5029905;28;20034;-67
2023/05/01 12:10:41;;;;;;;89.07;7.25;;;;;;;;;;5025096;28;20415;-67
2023/05/01 12:13:09;;;;;;;84.55;7.78;;;;;;;;;;5029754;28;20048;-68
2023/05/01 12:15:36;;;;;;;74.93;7.10;;;;;;;;;;5029120;28;20456;-67
2023/05/01 12:18:06;;;;;;;105.63;8.20;;;;;;;;;;5029185;28;20046;-67
2023/05/01 12:20:37;;;;;;;55.15;5.03;;;;;;;;;;5030214;28;20044;-67
2023/05/01 12:23:04;;;;;;;114.88;9.32;;;;;;;;;;5028670;28;20055;-67
2023/05/01 12:25:32;;;;;;;69.63;6.25;;;;;;;;;;5029108;28;20048;-67
2023/05/01 12:28:01;;;;;;;106.53;8.10;;;;;;;;;;5029328;28;20143;-67
2023/05/01 12:30:28;;;;;;;123.35;9.25;;;;;;;;;;5029226;28;20048;-67
2023/05/01 12:32:56;;;;;;;104.80;8.38;;;;;;;;;;5029668;28;20073;-67
2023/05/01 12:35:27;;;;;;;45.92;4.95;;;;;;;;;;5029725;28;20060;-67
2023/05/01 12:37:54;;;;;;;137.90;10.68;;;;;;;;;;5028936;28;20041;-67
2023/05/01 12:40:21;;;;;;;60.03;5.68;;;;;;;;;;5029119;28;20056;-67
2023/05/01 12:42:56;;;;;;;61.42;5.43;;;;;;;;;;5028824;28;20499;-67
2023/05/01 12:45:22;;;;;;;105.43;7.75;;;;;;;;;;5003027;28;20037;-67
2023/05/01 12:47:49;;;;;;;211.23;13.13;;;;;;;;;;5029786;28;20076;-67
2023/05/01 12:50:16;;;;;;;40.67;5.03;;;;;;;;;;5028691;28;20446;-70
2023/05/01 12:52:42;;;;;;;81.25;7.05;;;;;;;;;;5028870;28;20038;-69
2023/05/01 12:55:11;;;;;;;99.43;7.90;;;;;;;;;;5028870;28;20065;-69
2023/05/01 12:57:50;;;;;;;58.17;5.75;;;;;;;;;;5029067;28;20045;-68
2023/05/01 13:00:17;;;;;;;79.78;6.90;;;;;;;;;;5029086;28;20075;-68
2023/05/01 13:02:44;;;;;;;79.07;6.25;;;;;;;;;;5011226;28;20143;-68
2023/05/01 13:05:11;;;;;;;111.95;9.48;;;;;;;;;;5028364;28;20049;-69
2023/05/01 13:07:39;;;;;;;131.25;9.25;;;;;;;;;;5028708;28;20029;-68
2023/05/01 13:10:05;;;;;;;83.07;7.63;;;;;;;;;;5024730;28;20045;-69
2023/05/01 13:12:33;;;;;;;192.68;14.10;;;;;;;;;;5024534;28;20167;-71
2023/05/01 13:14:59;;;;;;;100.50;8.63;;;;;;;;;;5025403;28;20072;-69
2023/05/01 13:17:27;;;;;;;55.33;5.50;;;;;;;;;;5028351;28;20132;-74
2023/05/01 13:19:58;;;;;;;117.85;11.88;;;;;;;;;;5028083;28;20717;-68
2023/05/01 13:22:31;;;;;;;74.05;6.65;;;;;;;;;;5028330;28;20038;-68
2023/05/01 13:24:58;;;;;;;115.78;9.57;;;;;;;;;;5026352;28;20058;-68
2023/05/01 13:27:25;;;;;;;202.45;13.57;;;;;;;;;;5026045;28;20479;-69
2023/05/01 13:29:54;;;;;;;137.65;10.98;;;;;;;;;;5028974;28;20045;-70
2023/05/01 13:32:21;;;;;;;73.35;7.53;;;;;;;;;;5028157;28;20521;-70
2023/05/01 13:34:48;;;;;;;110.22;7.60;;;;;;;;;;5028168;28;20099;-69
2023/05/01 13:37:15;;;;;;;130.45;8.85;;;;;;;;;;5027881;28;20495;-70
2023/05/01 13:39:42;;;;;;;315.52;19.92;;;;;;;;;;5010429;28;20384;-70
2023/05/01 13:42:14;;;;;;;168.82;11.95;;;;;;;;;;5027702;28;20045;-69
2023/05/01 13:44:42;;;;;;;62.60;5.68;;;;;;;;;;5027495;28;20041;-69
2023/05/01 13:47:13;;;;;;;97.95;8.02;;;;;;;;;;5007453;28;20041;-69
2023/05/01 13:49:40;;;;;;;97.45;8.50;;;;;;;;;;5027610;28;20041;-69
2023/05/01 13:52:11;;;;;;;94.45;7.13;;;;;;;;;;5027928;28;20041;-69
2023/05/01 13:54:41;;;;;;;115.47;9.57;;;;;;;;;;5027762;28;20172;-69
2023/05/01 13:57:08;;;;;;;113.05;9.45;;;;;;;;;;5027794;28;20136;-70
2023/05/01 13:59:38;;;;;;;57.85;5.30;;;;;;;;;;5028668;28;20406;-69
2023/05/01 14:02:14;;;;;;;139.48;11.70;;;;;;;;;;5026693;28;20466;-69
2023/05/01 14:04:41;;;;;;;61.35;6.63;;;;;;;;;;5023920;28;20683;-69
2023/05/01 14:07:09;;;;;;;173.60;11.00;;;;;;;;;;5027481;28;20045;-69
2023/05/01 14:09:38;;;;;;;78.55;8.15;;;;;;;;;;5002231;28;20049;-70
2023/05/01 14:12:05;;;;;;;99.70;9.10;;;;;;;;;;5027602;28;20069;-69
2023/05/01 14:14:34;;;;;;;104.82;9.23;;;;;;;;;;5028199;28;20095;-69
2023/05/01 14:17:01;;;;;;;100.28;8.27;;;;;;;;;;5027103;28;20501;-69
2023/05/01 14:19:27;;;;;;;74.82;6.20;;;;;;;;;;5009142;28;20041;-69
2023/05/01 14:21:54;;;;;;;170.05;11.93;;;;;;;;;;5024520;28;20056;-70
2023/05/01 14:24:21;;;;;;;72.60;6.45;;;;;;;;;;5027936;28;20041;-69
2023/05/01 14:26:48;;;;;;;73.10;6.57;;;;;;;;;;5028531;28;20418;-69
2023/05/01 14:29:24;;;;;;;119.40;10.45;;;;;;;;;;5009482;28;20046;-69